Time;durP1;ratioP1;P1;durP2;ratioP2;P2;SDS_P1;SDS_P2;PMS_P1;PMS_P2;Temp;Humidity;BMP_temperature;BMP_pressure;BME280_temperature;BME280_humidity;BME280_pressure;Samples;Min_cycle;Max_cycle;Signal;HPM_P1;HPM_P2
2022/06/14 00:00:57;;;;;;;3.50;1.55;;;22.90;93.40;;;;;;4246091;27;20237;-75
2022/06/14 00:02:59;;;;;;;3.08;1.50;;;22.90;93.40;;;;;;4245665;27;20213;-75
2022/06/14 00:05:02;;;;;;;2.55;1.52;;;22.80;93.50;;;;;;4245660;27;20266;-75
2022/06/14 00:07:04;;;;;;;4.47;1.48;;;22.80;93.40;;;;;;4247068;27;20221;-75
2022/06/14 00:09:07;;;;;;;2.92;1.60;;;22.90;93.50;;;;;;4245189;27;20441;-75
2022/06/14 00:11:12;;;;;;;2.95;1.58;;;22.90;93.50;;;;;;4245935;27;20372;-75
2022/06/14 00:13:16;;;;;;;3.45;1.50;;;22.80;93.50;;;;;;4245586;27;20212;-75
2022/06/14 00:15:19;;;;;;;3.53;1.65;;;22.90;93.50;;;;;;4244578;27;20221;-75
2022/06/14 00:17:21;;;;;;;4.63;1.45;;;22.80;93.50;;;;;;4245836;27;20290;-75
2022/06/14 00:19:23;;;;;;;3.90;1.63;;;22.80;93.50;;;;;;4246271;27;20714;-75
2022/06/14 00:21:26;;;;;;;3.42;1.70;;;22.80;93.50;;;;;;4245912;27;20229;-75
2022/06/14 00:23:28;;;;;;;4.22;1.80;;;22.80;93.60;;;;;;4246371;27;20275;-75
2022/06/14 00:25:33;;;;;;;3.15;1.42;;;22.80;93.50;;;;;;4245560;27;20205;-75
2022/06/14 00:27:35;;;;;;;2.63;1.40;;;22.80;93.60;;;;;;4245384;27;20205;-75
2022/06/14 00:29:39;;;;;;;4.82;1.83;;;22.80;93.60;;;;;;4246021;27;20221;-75
2022/06/14 00:31:41;;;;;;;4.68;1.60;;;22.80;93.60;;;;;;4245435;27;20221;-75
2022/06/14 00:33:44;;;;;;;2.80;1.40;;;22.80;93.60;;;;;;4244152;27;20208;-75
2022/06/14 00:35:47;;;;;;;5.88;1.58;;;22.80;93.60;;;;;;4245852;27;20262;-75
2022/06/14 00:37:49;;;;;;;3.83;1.55;;;22.80;93.80;;;;;;4243633;27;20217;-75
2022/06/14 00:39:52;;;;;;;3.80;1.27;;;22.80;93.70;;;;;;4245998;27;20746;-75
2022/06/14 00:41:58;;;;;;;4.90;1.83;;;22.70;93.60;;;;;;4245085;27;20665;-75
2022/06/14 00:44:00;;;;;;;2.72;1.42;;;22.70;93.70;;;;;;4244462;27;20217;-75
2022/06/14 00:46:17;;;;;;;3.60;1.67;;;22.70;93.60;;;;;;4245533;27;20209;-75
2022/06/14 00:48:22;;;;;;;4.60;1.77;;;22.70;93.70;;;;;;4244365;27;20271;-75
2022/06/14 00:50:30;;;;;;;3.05;1.60;;;22.70;93.60;;;;;;4245034;27;20213;-75
2022/06/14 00:52:37;;;;;;;3.42;1.75;;;22.70;93.80;;;;;;4245582;27;20269;-75
2022/06/14 00:54:44;;;;;;;2.75;1.40;;;22.70;93.80;;;;;;4242884;27;20213;-75
2022/06/14 00:56:50;;;;;;;3.72;1.48;;;22.70;93.80;;;;;;4244841;27;20212;-75
2022/06/14 00:58:57;;;;;;;3.75;1.73;;;22.70;93.80;;;;;;4243677;27;20977;-75
2022/06/14 01:01:02;;;;;;;3.50;1.77;;;22.70;93.80;;;;;;4245834;27;20237;-75
2022/06/14 01:03:13;;;;;;;3.38;1.50;;;22.70;93.80;;;;;;4245550;27;20838;-75
2022/06/14 01:05:21;;;;;;;3.00;1.35;;;22.60;93.80;;;;;;4245589;27;20209;-75
2022/06/14 01:07:27;;;;;;;3.20;1.80;;;22.70;93.90;;;;;;4242314;27;20224;-75
2022/06/14 01:09:36;;;;;;;3.00;1.60;;;22.70;93.90;;;;;;4243464;27;20217;-75
2022/06/14 01:11:45;;;;;;;3.15;1.55;;;22.70;93.90;;;;;;4211234;28;20618;-75
2022/06/14 01:13:48;;;;;;;3.42;1.35;;;22.70;94.00;;;;;;4209947;28;20269;-75
2022/06/14 01:15:53;;;;;;;4.75;1.70;;;22.60;93.90;;;;;;4211265;28;20260;-75
2022/06/14 01:17:59;;;;;;;2.30;1.45;;;22.70;94.00;;;;;;4209091;28;20214;-75
2022/06/14 01:20:04;;;;;;;3.80;1.33;;;22.60;93.90;;;;;;4211856;28;20206;-75
2022/06/14 01:22:25;;;;;;;2.78;1.35;;;22.60;93.90;;;;;;4210989;28;20218;-75
2022/06/14 01:24:28;;;;;;;2.90;1.30;;;22.60;93.90;;;;;;4208494;28;20276;-75
2022/06/14 01:26:32;;;;;;;3.50;1.77;;;22.60;93.90;;;;;;4210715;28;20267;-75
2022/06/14 01:28:36;;;;;;;3.25;1.30;;;22.60;94.00;;;;;;4210044;28;20221;-75
2022/06/14 01:30:45;;;;;;;2.78;1.60;;;22.60;94.00;;;;;;4210350;28;20260;-75
2022/06/14 01:32:52;;;;;;;2.67;1.38;;;22.60;94.00;;;;;;4208811;28;20251;-75
2022/06/14 01:35:00;;;;;;;1.90;1.20;;;22.60;94.00;;;;;;4208400;28;20689;-75
2022/06/14 01:37:02;;;;;;;3.90;1.52;;;22.60;94.00;;;;;;4209599;28;20259;-75
2022/06/14 01:39:10;;;;;;;3.10;1.30;;;22.60;94.00;;;;;;4209962;28;20483;-75
2022/06/14 01:41:37;;;;;;;2.38;1.45;;;22.60;94.00;;;;;;4208028;28;20237;-75
2022/06/14 01:43:56;;;;;;;3.03;1.40;;;22.60;93.90;;;;;;4202320;28;20207;-75
2022/06/14 01:46:03;;;;;;;2.50;1.50;;;22.60;93.90;;;;;;4195130;28;20245;-75
2022/06/14 01:48:18;;;;;;;2.95;1.58;;;22.60;94.00;;;;;;4205359;28;20646;-75
2022/06/14 01:52:59;;;;;;;4.07;1.50;;;22.60;93.90;;;;;;4197937;28;20648;-75
2022/06/14 01:55:18;;;;;;;2.45;1.42;;;22.60;93.90;;;;;;4194982;28;20219;-75
2022/06/14 01:57:29;;;;;;;2.90;1.30;;;22.50;93.90;;;;;;4209685;28;20215;-75
2022/06/14 01:59:41;;;;;;;2.40;1.42;;;22.50;93.90;;;;;;4209445;28;20268;-75
2022/06/14 02:01:48;;;;;;;3.60;1.42;;;22.60;94.00;;;;;;4209135;28;20226;-75
2022/06/14 02:06:23;;;;;;;2.60;1.48;;;22.50;93.90;;;;;;4210011;28;20203;-75
2022/06/14 02:08:32;;;;;;;3.70;1.42;;;22.50;94.00;;;;;;4209288;28;20251;-75
2022/06/14 02:10:41;;;;;;;3.22;1.60;;;22.50;93.90;;;;;;4208024;28;20296;-75
2022/06/14 02:12:51;;;;;;;4.70;1.60;;;22.50;93.90;;;;;;4209481;28;20279;-75
2022/06/14 02:15:02;;;;;;;3.47;1.92;;;22.50;94.00;;;;;;4207763;28;20214;-75
2022/06/14 02:17:08;;;;;;;3.13;1.65;;;22.50;93.90;;;;;;4207943;28;21074;-74
2022/06/14 02:19:17;;;;;;;2.40;1.33;;;22.50;93.90;;;;;;4209534;28;20684;-75
2022/06/14 02:21:25;;;;;;;3.03;1.50;;;22.50;93.90;;;;;;4207993;28;20303;-75
2022/06/14 02:23:31;;;;;;;3.42;1.60;;;22.50;93.90;;;;;;4207807;28;20267;-75
2022/06/14 02:25:40;;;;;;;5.10;1.73;;;22.50;93.90;;;;;;4208465;28;20215;-74
2022/06/14 02:27:49;;;;;;;3.95;1.60;;;22.50;93.90;;;;;;4209587;28;20631;-75
2022/06/14 02:29:57;;;;;;;2.42;1.48;;;22.50;94.10;;;;;;4208919;28;20264;-75
2022/06/14 02:32:02;;;;;;;2.65;1.30;;;22.50;94.00;;;;;;4208255;28;20982;-75
2022/06/14 02:34:09;;;;;;;2.58;1.38;;;22.50;93.90;;;;;;4207998;28;20210;-75
2022/06/14 02:36:18;;;;;;;3.75;1.35;;;22.50;94.30;;;;;;4206517;28;20733;-75
2022/06/14 02:38:24;;;;;;;2.78;1.13;;;22.50;94.00;;;;;;4206136;28;20558;-75
2022/06/14 02:40:30;;;;;;;2.22;1.33;;;22.50;94.00;;;;;;4208223;28;20222;-75
2022/06/14 02:42:37;;;;;;;2.13;1.23;;;22.40;93.90;;;;;;4207878;28;20271;-75
2022/06/14 02:44:45;;;;;;;2.25;1.23;;;22.50;94.00;;;;;;4208548;28;20218;-75
2022/06/14 02:46:52;;;;;;;3.17;1.55;;;22.40;94.00;;;;;;4209090;28;20286;-75
2022/06/14 02:48:59;;;;;;;3.00;1.40;;;22.40;93.90;;;;;;4199692;28;20206;-75
2022/06/14 02:51:06;;;;;;;2.40;1.55;;;22.40;93.90;;;;;;4207791;28;20214;-75
2022/06/14 02:53:14;;;;;;;3.20;1.40;;;22.50;93.90;;;;;;4208073;28;20210;-75
2022/06/14 02:55:20;;;;;;;3.65;1.45;;;22.50;93.90;;;;;;4207064;28;20278;-75
2022/06/14 02:57:30;;;;;;;2.30;1.10;;;22.50;94.30;;;;;;4208680;28;20226;-75
2022/06/14 02:59:38;;;;;;;2.60;1.38;;;22.40;93.90;;;;;;4207340;28;20727;-75
2022/06/14 03:01:45;;;;;;;3.67;1.35;;;22.40;93.90;;;;;;4207660;28;20280;-75
2022/06/14 03:03:52;;;;;;;2.53;1.20;;;22.40;93.90;;;;;;4206132;28;20256;-74
2022/06/14 03:06:01;;;;;;;3.17;1.30;;;22.40;93.90;;;;;;4207558;28;20214;-75
2022/06/14 03:08:10;;;;;;;4.20;1.33;;;22.40;93.90;;;;;;4206970;28;20268;-75
2022/06/14 03:10:13;;;;;;;3.33;1.38;;;22.40;93.90;;;;;;4213138;27;20232;-75
2022/06/14 03:12:25;;;;;;;2.40;1.40;;;22.40;94.00;;;;;;4241383;27;20665;-75
2022/06/14 03:14:39;;;;;;;2.78;1.60;;;22.40;94.10;;;;;;4241853;27;20261;-75
2022/06/14 03:16:49;;;;;;;3.38;1.30;;;22.40;94.00;;;;;;4241131;27;20618;-75
2022/06/14 03:18:58;;;;;;;2.22;1.40;;;22.40;94.00;;;;;;4241884;27;20262;-75
2022/06/14 03:21:11;;;;;;;2.78;1.33;;;22.40;94.00;;;;;;4241534;27;20272;-75
2022/06/14 03:23:20;;;;;;;4.40;1.58;;;22.40;93.90;;;;;;4240465;27;20236;-75
2022/06/14 03:25:26;;;;;;;3.25;1.30;;;22.40;94.00;;;;;;4241545;27;20213;-75
2022/06/14 03:27:33;;;;;;;2.72;1.38;;;22.40;93.90;;;;;;4242245;28;20229;-75
2022/06/14 03:29:44;;;;;;;3.47;1.50;;;22.40;94.00;;;;;;4244823;27;21506;-75
2022/06/14 03:31:54;;;;;;;4.07;1.30;;;22.30;93.90;;;;;;4247366;27;20224;-75
2022/06/14 03:34:03;;;;;;;2.42;1.25;;;22.30;93.90;;;;;;4245850;27;20277;-75
2022/06/14 03:36:07;;;;;;;2.85;1.17;;;22.30;93.90;;;;;;4246036;27;20269;-75
2022/06/14 03:38:15;;;;;;;3.33;1.40;;;22.40;94.00;;;;;;4247737;27;20309;-75
2022/06/14 03:40:21;;;;;;;2.45;1.42;;;22.30;93.90;;;;;;4245851;27;20276;-75
2022/06/14 03:42:23;;;;;;;2.25;1.25;;;22.30;93.90;;;;;;4247545;27;20233;-75
2022/06/14 03:44:28;;;;;;;3.38;1.42;;;22.30;93.90;;;;;;4247718;27;20321;-75
2022/06/14 03:46:34;;;;;;;3.22;1.48;;;22.30;93.90;;;;;;4247258;27;20257;-75
2022/06/14 03:48:41;;;;;;;2.97;1.13;;;22.30;93.90;;;;;;4247720;27;20221;-75
2022/06/14 03:50:53;;;;;;;2.65;1.20;;;22.30;93.90;;;;;;4246944;27;20221;-75
2022/06/14 03:53:11;;;;;;;3.35;1.50;;;22.30;93.90;;;;;;4247400;27;20269;-75
2022/06/14 03:55:26;;;;;;;2.25;1.40;;;22.40;94.10;;;;;;4247299;27;20589;-75
2022/06/14 03:57:41;;;;;;;2.30;1.25;;;22.30;93.90;;;;;;4246461;27;20213;-75
2022/06/14 04:00:01;;;;;;;3.17;1.30;;;22.30;93.90;;;;;;4245943;27;20213;-75
2022/06/14 04:02:10;;;;;;;2.67;1.30;;;22.30;94.00;;;;;;4245858;27;21001;-75
2022/06/14 04:04:39;;;;;;;2.75;1.30;;;22.30;94.00;;;;;;4247291;27;20224;-75
2022/06/14 04:06:55;;;;;;;2.50;1.40;;;22.30;94.00;;;;;;4246278;27;20221;-75
2022/06/14 04:09:05;;;;;;;3.40;1.60;;;22.30;94.00;;;;;;4247416;27;20216;-75
2022/06/14 04:11:17;;;;;;;3.17;1.30;;;22.30;94.00;;;;;;4246716;27;20233;-75
2022/06/14 04:13:32;;;;;;;3.28;1.52;;;22.30;94.10;;;;;;4244656;27;20702;-75
2022/06/14 04:15:40;;;;;;;2.53;1.42;;;22.30;93.90;;;;;;4247031;27;20209;-75
2022/06/14 04:17:51;;;;;;;4.28;1.38;;;22.30;94.00;;;;;;4247406;27;20291;-75
2022/06/14 04:20:07;;;;;;;2.58;1.17;;;22.30;94.00;;;;;;4246369;27;20216;-75
2022/06/14 04:22:20;;;;;;;2.45;1.33;;;22.30;94.10;;;;;;4247150;27;20372;-75
2022/06/14 04:24:31;;;;;;;3.28;1.20;;;22.30;94.00;;;;;;4246854;27;20242;-75
2022/06/14 04:26:42;;;;;;;3.33;1.40;;;22.30;94.00;;;;;;4246986;27;20240;-75
2022/06/14 04:28:50;;;;;;;3.17;1.27;;;22.30;94.10;;;;;;4247221;27;20216;-75
2022/06/14 04:30:58;;;;;;;3.78;1.58;;;22.30;94.20;;;;;;4242367;27;20714;-75
2022/06/14 04:33:08;;;;;;;1.65;1.08;;;22.30;94.00;;;;;;4244617;27;20251;-75
2022/06/14 04:35:18;;;;;;;2.88;1.20;;;22.30;94.00;;;;;;4246728;27;20277;-75
2022/06/14 04:37:26;;;;;;;2.45;1.38;;;22.20;93.90;;;;;;4245858;27;20702;-75
2022/06/14 04:39:34;;;;;;;2.92;1.33;;;22.30;94.00;;;;;;4245524;27;20217;-75
2022/06/14 04:41:41;;;;;;;2.13;1.30;;;22.30;94.10;;;;;;4241935;27;20262;-75
2022/06/14 04:43:49;;;;;;;3.65;1.23;;;22.30;94.30;;;;;;4244156;27;20292;-75
2022/06/14 04:45:56;;;;;;;2.55;1.50;;;22.20;93.90;;;;;;4243634;27;20594;-75
2022/06/14 04:48:07;;;;;;;1.70;1.20;;;22.20;93.90;;;;;;4243742;27;20602;-75
2022/06/14 04:50:16;;;;;;;2.30;1.27;;;22.20;93.90;;;;;;4243815;27;20301;-75
2022/06/14 04:52:23;;;;;;;3.28;1.60;;;22.20;94.00;;;;;;4244968;27;20212;-75
2022/06/14 04:54:29;;;;;;;3.65;1.38;;;22.30;94.00;;;;;;4242334;27;20212;-75
2022/06/14 04:56:35;;;;;;;1.48;0.90;;;22.30;94.00;;;;;;4244687;27;20217;-75
2022/06/14 04:58:42;;;;;;;2.17;1.10;;;22.20;94.00;;;;;;4244625;27;21733;-75
2022/06/14 05:00:51;;;;;;;2.55;1.45;;;22.30;94.00;;;;;;4242555;27;20213;-75
2022/06/14 05:02:58;;;;;;;2.25;1.48;;;22.30;94.00;;;;;;4244038;27;20289;-75
2022/06/14 05:05:06;;;;;;;1.98;1.08;;;22.20;94.00;;;;;;4242585;27;20940;-75
2022/06/14 05:07:14;;;;;;;2.95;1.20;;;22.20;94.00;;;;;;4243329;27;20257;-75
2022/06/14 05:09:21;;;;;;;3.95;1.48;;;22.20;94.00;;;;;;4242409;27;20220;-75
2022/06/14 05:11:30;;;;;;;2.67;1.30;;;22.20;94.10;;;;;;4241685;27;20245;-75
2022/06/14 05:13:41;;;;;;;2.10;1.00;;;22.30;94.10;;;;;;4244141;27;20217;-75
2022/06/14 05:15:48;;;;;;;2.80;1.42;;;22.30;94.10;;;;;;4241862;27;20254;-75
2022/06/14 05:17:55;;;;;;;1.92;1.15;;;22.30;94.10;;;;;;4244417;27;20270;-75
2022/06/14 05:20:02;;;;;;;2.40;1.20;;;22.30;94.00;;;;;;4243985;27;20816;-75
2022/06/14 05:22:08;;;;;;;3.75;1.38;;;22.30;94.00;;;;;;4241571;27;20204;-75
2022/06/14 05:24:12;;;;;;;2.10;1.35;;;22.30;94.00;;;;;;4243396;27;20622;-75
2022/06/14 05:26:26;;;;;;;2.33;1.00;;;22.30;94.20;;;;;;4243414;27;20258;-75
2022/06/14 05:28:38;;;;;;;2.22;1.10;;;22.30;94.20;;;;;;4241451;27;20798;-75
2022/06/14 05:30:47;;;;;;;2.38;1.20;;;22.30;94.10;;;;;;4243168;27;20250;-75
2022/06/14 05:32:54;;;;;;;2.85;1.35;;;22.30;94.10;;;;;;4243124;27;20246;-74
2022/06/14 05:35:14;;;;;;;2.10;1.58;;;22.30;94.00;;;;;;4241864;27;20205;-75
2022/06/14 05:37:27;;;;;;;2.83;1.40;;;22.30;94.10;;;;;;4243270;27;20217;-75
2022/06/14 05:39:37;;;;;;;3.20;1.52;;;22.30;94.10;;;;;;4241023;27;20569;-75
2022/06/14 05:41:43;;;;;;;2.20;1.20;;;22.30;94.20;;;;;;4243516;27;20623;-75
2022/06/14 05:43:48;;;;;;;2.88;1.40;;;22.30;94.20;;;;;;4241693;27;20286;-75
2022/06/14 05:45:56;;;;;;;1.90;1.20;;;22.30;94.10;;;;;;4243731;27;20285;-75
2022/06/14 05:48:04;;;;;;;3.22;1.42;;;22.30;94.40;;;;;;4243753;27;20216;-75
2022/06/14 05:50:12;;;;;;;3.50;1.38;;;22.30;94.10;;;;;;4242757;27;20212;-75
2022/06/14 05:52:19;;;;;;;2.72;1.40;;;22.30;94.10;;;;;;4242621;27;20265;-75
2022/06/14 05:54:28;;;;;;;3.03;1.35;;;22.30;94.40;;;;;;4243516;27;20339;-75
2022/06/14 05:56:36;;;;;;;3.33;1.48;;;22.30;94.00;;;;;;4240960;27;20273;-75
2022/06/14 05:58:46;;;;;;;2.90;1.45;;;22.30;94.20;;;;;;4243074;27;20220;-75
2022/06/14 06:00:53;;;;;;;2.45;1.20;;;22.30;94.10;;;;;;4242627;27;20224;-74
2022/06/14 06:03:04;;;;;;;2.45;1.20;;;22.30;94.00;;;;;;4243394;27;20240;-75
2022/06/14 06:05:12;;;;;;;3.08;1.48;;;22.30;94.10;;;;;;4243649;27;20674;-75
2022/06/14 06:07:18;;;;;;;3.08;1.52;;;22.30;94.00;;;;;;4242188;27;20231;-75
2022/06/14 06:09:26;;;;;;;2.50;1.20;;;22.30;94.00;;;;;;4242564;27;20240;-75
2022/06/14 06:11:33;;;;;;;2.40;1.10;;;22.30;94.10;;;;;;4241224;27;20243;-75
2022/06/14 06:13:41;;;;;;;3.22;1.40;;;22.30;94.10;;;;;;4240780;27;20662;-75
2022/06/14 06:15:47;;;;;;;2.78;1.35;;;22.30;94.10;;;;;;4243070;27;20277;-75
2022/06/14 06:17:53;;;;;;;2.95;1.40;;;22.30;94.20;;;;;;4242174;27;20217;-74
2022/06/14 06:20:06;;;;;;;3.45;1.50;;;22.30;94.60;;;;;;4241640;27;20478;-75
2022/06/14 06:22:13;;;;;;;3.13;1.60;;;22.30;94.10;;;;;;4241963;27;20935;-75
2022/06/14 06:24:18;;;;;;;1.95;1.10;;;22.30;94.20;;;;;;4242944;27;20303;-75
2022/06/14 06:26:27;;;;;;;2.88;1.15;;;22.30;94.10;;;;;;4243002;27;20305;-75
2022/06/14 06:28:34;;;;;;;3.13;1.42;;;22.30;94.20;;;;;;4241307;27;20217;-75
2022/06/14 06:30:42;;;;;;;2.15;1.40;;;22.30;94.30;;;;;;4241613;27;20212;-75
2022/06/14 06:32:45;;;;;;;2.75;1.10;;;22.30;94.30;;;;;;4242152;27;20213;-75
2022/06/14 06:34:49;;;;;;;3.33;1.48;;;22.30;94.20;;;;;;4240717;27;20221;-75
2022/06/14 06:37:02;;;;;;;2.42;1.40;;;22.40;94.20;;;;;;4242054;27;20258;-75
2022/06/14 06:39:16;;;;;;;2.58;1.10;;;22.30;94.10;;;;;;4241573;27;20250;-75
2022/06/14 06:43:47;;;;;;;3.40;1.40;;;22.30;94.10;;;;;;4241835;27;20216;-75
2022/06/14 06:45:52;;;;;;;2.88;1.15;;;22.40;94.50;;;;;;4242777;27;20261;-75
2022/06/14 06:48:03;;;;;;;2.42;1.23;;;22.30;94.20;;;;;;4242115;27;20717;-77
2022/06/14 06:50:25;;;;;;;3.17;1.65;;;22.30;94.30;;;;;;4242370;27;20205;-78
2022/06/14 06:52:37;;;;;;;3.17;1.50;;;22.30;94.30;;;;;;4241980;27;20213;-78
2022/06/14 06:54:46;;;;;;;2.75;1.13;;;22.30;94.40;;;;;;4241418;27;20649;-78
2022/06/14 06:56:53;;;;;;;1.95;1.15;;;22.30;94.30;;;;;;4242714;27;20212;-77
2022/06/14 06:59:02;;;;;;;4.30;1.65;;;22.30;94.30;;;;;;4242438;27;20265;-77
2022/06/14 07:01:08;;;;;;;4.10;1.45;;;22.10;92.70;;;;;;4242776;27;20220;-77
2022/06/14 07:03:19;;;;;;;6.22;1.60;;;21.60;92.30;;;;;;4241641;27;20289;-77
2022/06/14 07:05:22;;;;;;;3.00;1.50;;;21.20;92.30;;;;;;4241233;27;20268;-77
2022/06/14 07:07:32;;;;;;;7.25;1.83;;;21.00;92.30;;;;;;4240871;27;20213;-77
2022/06/14 07:09:50;;;;;;;9.20;1.77;;;20.80;92.60;;;;;;4238957;27;20252;-77
2022/06/14 07:11:56;;;;;;;8.50;1.60;;;20.90;92.80;;;;;;4210262;28;20255;-78
2022/06/14 07:14:05;;;;;;;5.53;1.60;;;21.20;92.70;;;;;;4211070;28;20214;-76
2022/06/14 07:16:13;;;;;;;2.85;1.20;;;21.50;92.60;;;;;;4213189;28;20691;-76
2022/06/14 07:18:18;;;;;;;3.13;1.55;;;21.60;93.50;;;;;;4212150;28;20289;-76
2022/06/14 07:20:32;;;;;;;5.80;1.80;;;21.80;93.60;;;;;;4210725;28;20621;-78
2022/06/14 07:22:39;;;;;;;5.97;1.58;;;21.90;93.50;;;;;;4208975;28;20272;-77
2022/06/14 07:24:52;;;;;;;4.05;1.55;;;22.00;93.10;;;;;;4211958;28;20309;-77
2022/06/14 07:27:02;;;;;;;5.68;1.83;;;22.10;93.30;;;;;;4211949;28;20651;-76
2022/06/14 07:29:11;;;;;;;6.85;1.98;;;22.20;93.30;;;;;;4208239;28;20271;-75
2022/06/14 07:31:25;;;;;;;7.75;2.38;;;22.30;93.30;;;;;;4200229;28;20217;-75
2022/06/14 07:33:30;;;;;;;6.82;1.95;;;22.40;93.50;;;;;;4202395;28;20317;-75
2022/06/14 07:35:41;;;;;;;9.18;2.03;;;22.40;93.90;;;;;;4208124;28;20557;-75
2022/06/14 07:37:46;;;;;;;7.18;1.95;;;22.40;93.60;;;;;;4198404;28;20213;-76
2022/06/14 07:39:58;;;;;;;5.95;1.73;;;22.40;93.20;;;;;;4213523;28;20274;-75
2022/06/14 07:42:06;;;;;;;5.40;1.73;;;22.40;91.90;;;;;;4200204;28;20222;-77
2022/06/14 07:44:18;;;;;;;5.82;1.70;;;22.40;91.70;;;;;;4199488;28;20945;-77
2022/06/14 07:46:32;;;;;;;6.30;2.20;;;22.40;91.40;;;;;;4207510;28;20218;-76
2022/06/14 07:48:45;;;;;;;5.18;1.85;;;22.30;91.40;;;;;;4206894;28;20550;-75
2022/06/14 07:50:52;;;;;;;7.13;1.77;;;22.30;91.30;;;;;;4202549;28;20256;-76
2022/06/14 07:52:59;;;;;;;6.35;1.70;;;22.30;91.40;;;;;;4205771;28;20229;-75
2022/06/14 07:55:07;;;;;;;5.38;2.13;;;22.30;90.80;;;;;;4207237;28;20219;-75
2022/06/14 07:57:15;;;;;;;4.38;1.73;;;22.40;91.60;;;;;;4219589;28;20209;-75
2022/06/14 07:59:24;;;;;;;5.32;1.80;;;22.40;91.60;;;;;;4206237;28;20658;-75
2022/06/14 08:01:30;;;;;;;7.28;1.80;;;22.30;90.80;;;;;;4206048;28;20240;-76
2022/06/14 08:03:40;;;;;;;7.78;1.85;;;22.30;90.80;;;;;;4209082;28;20708;-73
2022/06/14 08:05:51;;;;;;;5.28;1.67;;;22.40;90.80;;;;;;4207988;28;20214;-78
2022/06/14 08:07:57;;;;;;;5.95;1.65;;;22.40;90.50;;;;;;4211952;28;20231;-76
2022/06/14 08:10:04;;;;;;;4.43;1.58;;;22.40;90.50;;;;;;4211728;28;20249;-80
2022/06/14 08:12:11;;;;;;;6.22;2.00;;;22.50;92.00;;;;;;4210499;28;20213;-81
2022/06/14 08:14:21;;;;;;;3.83;1.60;;;22.50;91.00;;;;;;4210839;28;20215;-82
2022/06/14 08:16:24;;;;;;;8.07;1.75;;;22.60;90.40;;;;;;4213120;28;20217;-76
2022/06/14 08:18:35;;;;;;;5.97;1.73;;;22.60;90.20;;;;;;4215120;28;20219;-75
2022/06/14 08:20:43;;;;;;;6.13;2.00;;;22.50;90.30;;;;;;4210158;28;20209;-77
2022/06/14 08:22:49;;;;;;;8.07;1.70;;;22.50;90.30;;;;;;4217978;28;20267;-77
2022/06/14 08:24:57;;;;;;;4.93;2.05;;;22.40;90.50;;;;;;4216248;28;20242;-77
2022/06/14 08:27:05;;;;;;;6.20;1.98;;;22.50;90.90;;;;;;4214234;28;20218;-79
2022/06/14 08:29:13;;;;;;;5.45;1.58;;;22.60;90.70;;;;;;4211924;28;20258;-75
2022/06/14 08:31:23;;;;;;;6.90;1.45;;;22.60;90.90;;;;;;4213880;28;20361;-80
2022/06/14 08:33:29;;;;;;;6.13;1.70;;;22.60;90.50;;;;;;4215128;28;20275;-79
2022/06/14 08:35:36;;;;;;;5.88;1.67;;;22.60;90.10;;;;;;4212953;28;20206;-81
2022/06/14 08:37:42;;;;;;;6.72;1.75;;;22.70;90.50;;;;;;4214016;28;20266;-82
2022/06/14 08:39:50;;;;;;;5.57;1.90;;;22.60;90.60;;;;;;4210762;28;20210;-83
2022/06/14 08:42:05;;;;;;;5.82;1.85;;;22.60;90.80;;;;;;4216470;28;20214;-83
2022/06/14 08:44:10;;;;;;;6.70;1.80;;;22.70;90.60;;;;;;4209191;28;20231;-79
2022/06/14 08:46:27;;;;;;;6.93;1.70;;;22.50;91.30;;;;;;4206609;28;20689;-81
2022/06/14 08:48:40;;;;;;;6.57;1.95;;;22.60;91.60;;;;;;4216215;28;20281;-82
2022/06/14 08:50:58;;;;;;;7.03;1.90;;;22.70;91.00;;;;;;4210877;28;20222;-82
2022/06/14 08:53:39;;;;;;;9.20;3.63;;;22.70;90.90;;;;;;4215010;28;20210;-81
2022/06/14 08:56:10;;;;;;;6.00;1.70;;;22.70;91.50;;;;;;4209413;28;20256;-78
2022/06/14 08:58:40;;;;;;;5.38;1.80;;;22.70;91.60;;;;;;4204043;28;20252;-77
2022/06/14 09:00:57;;;;;;;7.85;1.90;;;22.60;91.30;;;;;;4210075;28;20222;-77
2022/06/14 09:03:35;;;;;;;5.30;1.88;;;22.70;91.50;;;;;;4195968;28;20256;-80
2022/06/14 09:05:58;;;;;;;2.95;1.52;;;22.70;91.20;;;;;;4218776;28;20245;-79
2022/06/14 09:08:26;;;;;;;7.85;1.90;;;22.70;91.80;;;;;;4194662;28;20248;-80
2022/06/14 09:10:56;;;;;;;6.68;2.00;;;22.80;92.10;;;;;;4215744;28;20233;-77
2022/06/14 09:13:26;;;;;;;3.60;1.70;;;22.80;91.30;;;;;;4206266;28;20217;-78
2022/06/14 09:16:03;;;;;;;4.95;1.85;;;22.80;91.40;;;;;;4203134;28;20211;-78
2022/06/14 09:18:16;;;;;;;5.65;2.03;;;22.70;91.10;;;;;;4210827;28;20958;-76
2022/06/14 09:20:33;;;;;;;5.85;1.63;;;22.80;91.40;;;;;;4206099;28;20214;-77
2022/06/14 09:22:44;;;;;;;5.72;1.60;;;22.80;91.60;;;;;;4202582;28;20619;-78
2022/06/14 09:24:56;;;;;;;8.07;1.77;;;22.80;91.60;;;;;;4205115;28;20242;-76
2022/06/14 09:27:14;;;;;;;5.97;1.70;;;22.80;91.50;;;;;;4210861;28;20214;-80
2022/06/14 09:29:56;;;;;;;4.93;1.48;;;22.80;91.50;;;;;;4207396;28;20222;-79
2022/06/14 09:33:09;;;;;;;5.28;1.70;;;22.80;92.30;;;;;;4207332;28;21859;-81
2022/06/14 09:35:21;;;;;;;6.60;1.65;;;22.80;93.00;;;;;;4209862;28;20746;-79
2022/06/14 09:37:51;;;;;;;7.70;1.58;;;22.90;92.30;;;;;;4204331;28;20259;-78
2022/06/14 09:40:28;;;;;;;6.78;1.80;;;22.90;92.00;;;;;;4203919;28;20340;-80
2022/06/14 09:43:03;;;;;;;6.15;1.77;;;22.80;92.20;;;;;;4216727;28;20229;-80
2022/06/14 09:45:41;;;;;;;3.80;1.83;;;22.80;92.00;;;;;;4208006;28;20234;-80
2022/06/14 09:48:06;;;;;;;4.90;2.10;;;23.00;91.50;;;;;;4203307;28;20218;-82
2022/06/14 09:50:33;;;;;;;7.43;2.17;;;23.00;91.40;;;;;;4209788;28;20207;-78
2022/06/14 09:53:11;;;;;;;4.07;1.80;;;23.00;92.30;;;;;;4193258;28;20299;-78
2022/06/14 09:55:40;;;;;;;6.57;2.10;;;23.10;92.30;;;;;;4173039;28;20218;-79
2022/06/14 09:58:18;;;;;;;5.75;2.30;;;23.10;91.80;;;;;;4214542;28;20299;-78
2022/06/14 10:00:38;;;;;;;5.45;2.00;;;23.10;91.50;;;;;;4205307;28;20983;-77
2022/06/14 10:02:54;;;;;;;5.30;1.70;;;23.20;91.30;;;;;;4212536;28;20344;-80
2022/06/14 10:05:12;;;;;;;6.55;2.15;;;23.20;92.10;;;;;;4219397;28;20697;-78
2022/06/14 10:07:30;;;;;;;7.63;1.90;;;23.20;92.40;;;;;;4208861;28;20210;-79
2022/06/14 10:09:54;;;;;;;8.50;2.25;;;23.20;92.90;;;;;;4213224;28;20206;-78
2022/06/14 10:12:18;;;;;;;6.00;2.30;;;23.10;92.60;;;;;;4196909;28;20278;-74
2022/06/14 10:14:42;;;;;;;4.72;1.88;;;23.10;92.50;;;;;;4208802;28;20343;-79
2022/06/14 10:17:13;;;;;;;6.03;2.08;;;23.10;93.10;;;;;;4207806;28;20593;-76
2022/06/14 10:19:31;;;;;;;5.38;2.33;;;23.20;93.00;;;;;;4203770;28;20226;-78
2022/06/14 10:21:37;;;;;;;7.90;2.58;;;23.20;92.50;;;;;;4206994;28;20272;-79
2022/06/14 10:23:50;;;;;;;6.00;1.70;;;23.20;92.60;;;;;;4211604;28;20258;-79
2022/06/14 10:28:53;;;;;;;10.93;2.22;;;23.20;93.00;;;;;;4209566;28;20194;-81
2022/06/14 10:31:03;;;;;;;7.45;2.55;;;23.30;93.00;;;;;;4205033;28;20222;-78
2022/06/14 10:33:39;;;;;;;6.30;1.95;;;23.20;92.00;;;;;;4207149;28;20239;-79
2022/06/14 10:35:53;;;;;;;5.55;2.08;;;23.30;91.70;;;;;;4167545;28;20936;-78
2022/06/14 10:38:26;;;;;;;7.68;2.55;;;23.30;91.80;;;;;;4197551;28;20214;-77
2022/06/14 10:40:43;;;;;;;11.40;2.30;;;23.40;92.90;;;;;;4169190;28;20226;-78
2022/06/14 10:42:55;;;;;;;8.73;2.03;;;23.40;92.90;;;;;;4205055;28;20219;-80
2022/06/14 10:45:05;;;;;;;4.25;1.80;;;23.40;91.30;;;;;;4203615;28;20239;-77
2022/06/14 10:47:13;;;;;;;6.63;2.15;;;23.30;91.50;;;;;;4193216;28;20214;-74
2022/06/14 10:50:06;;;;;;;7.18;1.95;;;23.40;91.40;;;;;;4178321;28;20224;-74
2022/06/14 10:52:34;;;;;;;7.50;1.90;;;23.40;91.60;;;;;;4176793;28;20222;-77
2022/06/14 10:54:47;;;;;;;6.32;2.05;;;23.40;91.50;;;;;;4174643;28;20222;-77
2022/06/14 10:57:16;;;;;;;4.30;1.60;;;23.50;92.10;;;;;;4190588;28;20215;-77
2022/06/14 10:59:38;;;;;;;6.90;2.38;;;23.50;92.50;;;;;;4196226;28;20263;-75
2022/06/14 11:01:49;;;;;;;6.50;2.00;;;23.50;93.20;;;;;;4198335;28;20214;-76
2022/06/14 11:03:59;;;;;;;6.80;2.22;;;23.50;92.60;;;;;;4195146;28;20215;-75
2022/06/14 11:06:27;;;;;;;8.43;2.00;;;23.40;91.90;;;;;;4194819;28;20226;-76
2022/06/14 11:08:45;;;;;;;6.10;2.03;;;23.50;91.70;;;;;;4194189;28;20261;-76
2022/06/14 11:11:01;;;;;;;6.53;1.83;;;23.50;91.70;;;;;;4204436;27;20835;-75
2022/06/14 11:13:15;;;;;;;4.70;1.85;;;23.60;91.80;;;;;;4217042;28;20684;-76
2022/06/14 11:15:33;;;;;;;6.45;2.03;;;23.60;92.70;;;;;;4216211;28;20206;-76
2022/06/14 11:18:00;;;;;;;5.45;2.15;;;23.50;93.10;;;;;;4216518;28;20205;-76
2022/06/14 11:20:15;;;;;;;8.07;1.77;;;23.40;93.00;;;;;;4217519;28;20268;-76
2022/06/14 11:22:40;;;;;;;4.50;1.50;;;23.40;93.10;;;;;;4222274;28;20221;-76
2022/06/14 11:24:49;;;;;;;6.78;2.05;;;23.50;93.00;;;;;;4218758;28;20222;-76
2022/06/14 11:27:00;;;;;;;7.22;1.98;;;23.50;93.30;;;;;;4218399;28;20229;-76
2022/06/14 11:29:10;;;;;;;4.43;1.60;;;23.60;93.30;;;;;;4220069;28;20259;-76
2022/06/14 11:31:22;;;;;;;5.25;2.10;;;23.60;93.20;;;;;;4217133;28;20205;-76
2022/06/14 11:33:37;;;;;;;6.97;1.90;;;23.60;92.80;;;;;;4218436;28;20246;-77
2022/06/14 11:35:59;;;;;;;5.85;1.77;;;23.60;91.80;;;;;;4220552;28;20464;-76